createdAt,value
2017-07-09T00:02:25.219Z,1009.04
2017-07-09T00:12:25.183Z,1008.99
2017-07-09T00:22:25.251Z,1008.96
2017-07-09T00:32:25.209Z,1009.11
2017-07-09T00:42:25.174Z,1009.06
2017-07-09T00:52:25.232Z,1008.81
2017-07-09T01:02:25.199Z,1008.78
2017-07-09T01:12:25.264Z,1008.6
2017-07-09T01:22:25.216Z,1008.49
2017-07-09T01:32:26.205Z,1008.41
2017-07-09T01:42:25.248Z,1008.45
2017-07-09T01:52:25.219Z,1008.38
2017-07-09T02:02:25.280Z,1008.21
2017-07-09T02:12:25.245Z,1008.21
2017-07-09T02:22:25.187Z,1008.28
2017-07-09T02:32:25.248Z,1008.27
2017-07-09T02:42:25.206Z,1008.22
2017-07-09T02:52:25.278Z,1008.16
2017-07-09T03:02:25.233Z,1008.28
2017-07-09T03:12:25.198Z,1008.38
2017-07-09T03:22:26.183Z,1008.23
2017-07-09T03:32:27.275Z,1008.31
2017-07-09T03:42:28.778Z,1008.35
2017-07-09T03:52:27.192Z,1008.46
2017-07-09T04:02:25.214Z,1008.46
2017-07-09T04:12:29.267Z,1008.51
2017-07-09T04:22:27.232Z,1008.46
2017-07-09T04:32:25.195Z,1008.44
2017-07-09T04:42:26.275Z,1008.36
2017-07-09T04:52:25.220Z,1008.48
2017-07-09T05:12:25.232Z,1008.32
2017-07-09T05:22:26.228Z,1008.26
2017-07-09T05:32:25.264Z,1008.27
2017-07-09T05:42:25.321Z,1008.17
2017-07-09T05:52:25.303Z,1008.18
2017-07-09T06:02:25.363Z,1008.07
2017-07-09T06:12:25.305Z,1008.08
2017-07-09T06:22:25.278Z,1008.04
2017-07-09T06:32:25.340Z,1008.22
2017-07-09T06:42:25.297Z,1008.33
2017-07-09T06:52:25.264Z,1008.33
2017-07-09T07:02:25.318Z,1008.26
2017-07-09T07:12:25.283Z,1008.18
2017-07-09T07:22:25.340Z,1008.16
2017-07-09T07:32:25.292Z,1008.2
2017-07-09T07:42:25.375Z,1008.18
2017-07-09T07:52:25.345Z,1008.16
2017-07-09T08:02:25.302Z,1008.28
2017-07-09T08:12:25.375Z,1008.04
2017-07-09T08:22:25.308Z,1008.01
2017-07-09T08:32:25.337Z,1007.89
2017-07-09T08:42:25.313Z,1007.86
2017-07-09T08:52:25.376Z,1007.84
2017-07-09T09:02:25.326Z,1007.76
2017-07-09T09:12:25.411Z,1007.62
2017-07-09T09:22:25.409Z,1007.5
2017-07-09T09:32:25.357Z,1007.51
2017-07-09T09:42:25.414Z,1007.53
2017-07-09T09:52:25.385Z,1007.46
2017-07-09T10:02:25.351Z,1007.48
2017-07-09T10:12:25.398Z,1007.44
2017-07-09T10:22:26.382Z,1007.31
2017-07-09T10:32:25.598Z,1007.19
2017-07-09T10:42:25.544Z,1007.14
2017-07-09T10:52:25.424Z,1007.08
2017-07-09T11:02:25.517Z,1007.11
2017-07-09T11:12:25.408Z,1007.07
2017-07-09T11:22:25.507Z,1006.96
2017-07-09T11:32:25.425Z,1006.84
2017-07-09T11:42:25.858Z,1006.89
2017-07-09T11:52:26.168Z,1006.84
2017-07-09T12:02:25.512Z,1006.77
2017-07-09T12:12:25.509Z,1006.75
2017-07-09T12:22:32.510Z,1006.68
2017-07-09T12:32:28.305Z,1006.56
2017-07-09T12:42:36.485Z,1006.49
2017-07-09T12:52:26.842Z,1006.44
2017-07-09T13:02:25.501Z,1006.29
2017-07-09T13:22:25.900Z,1006.2
2017-07-09T13:32:28.220Z,1006.07
2017-07-09T13:42:25.849Z,1006.08
2017-07-09T13:52:26.631Z,1005.91
2017-07-09T14:02:27.190Z,1005.87
2017-07-09T14:12:25.517Z,1005.79
2017-07-09T14:22:28.276Z,1005.71
2017-07-09T14:32:37.535Z,1005.58
2017-07-09T14:42:27.278Z,1005.45
2017-07-09T14:52:27.737Z,1005.34
2017-07-09T15:03:05.149Z,1005.32
2017-07-09T15:22:25.444Z,1005.11
2017-07-09T15:32:40.394Z,1005
2017-07-09T15:42:26.138Z,1005
2017-07-09T15:52:28.487Z,1004.96
2017-07-09T16:02:29.604Z,1004.79
2017-07-09T16:12:29.775Z,1004.71
2017-07-09T16:22:26.190Z,1004.53
2017-07-09T16:32:29.843Z,1004.5
2017-07-09T16:42:26.327Z,1004.35
2017-07-09T17:02:29.115Z,1004.21
2017-07-09T17:12:26.724Z,1004.07
2017-07-09T17:22:25.493Z,1003.99
2017-07-09T17:32:31.099Z,1003.92
2017-07-09T17:42:25.774Z,1003.8
2017-07-09T17:52:38.584Z,1003.73
2017-07-09T18:02:40.709Z,1003.72
2017-07-09T18:13:11.660Z,1003.83
2017-07-09T18:22:25.700Z,1003.78
2017-07-09T18:32:26.106Z,1003.79
2017-07-09T18:42:27.072Z,1003.8
2017-07-09T18:52:36.577Z,1003.79
2017-07-09T19:02:30.913Z,1003.75
2017-07-09T19:12:25.999Z,1003.8
2017-07-09T19:22:34.090Z,1003.79
2017-07-09T19:32:28.069Z,1003.69
2017-07-09T19:52:27.191Z,1003.75
2017-07-09T20:02:26.580Z,1003.73
2017-07-09T20:12:59.667Z,1003.72
2017-07-09T20:22:34.357Z,1003.81
2017-07-09T20:32:33.449Z,1003.94
2017-07-09T20:42:25.708Z,1003.9
2017-07-09T21:22:38.776Z,1003.74
2017-07-09T21:32:38.662Z,1003.8
2017-07-09T21:42:49.774Z,1003.78
2017-07-09T21:52:38.668Z,1003.6
2017-07-09T22:02:38.666Z,1003.57
2017-07-09T22:12:38.781Z,1003.54
2017-07-09T22:22:38.671Z,1003.4
2017-07-09T22:32:38.678Z,1003.24
2017-07-09T22:42:38.672Z,1003.12
2017-07-09T22:52:38.663Z,1002.95
2017-07-09T23:02:38.714Z,1002.9
2017-07-09T23:12:38.712Z,1002.82
2017-07-09T23:22:38.723Z,1002.65
2017-07-09T23:32:38.686Z,1002.63
2017-07-09T23:42:38.737Z,1002.49
2017-07-09T23:52:38.711Z,1002.37
